Terminal Aerodrome Forecast
Issued by NWS

Home | Current Version | Previous Version | Text Only | Print | Product List | Glossary On
Versions: 1 2 3 4 5 6 7 8 9 10 11 12 13 14 15 16 17 18
000
FTUS43 KILX 271700
TAFBMI
TAF
KBMI 271723Z 2718/2818 30012G17KT 5SM -SN BKN015 OVC025
     FM272000 30010KT P6SM SCT015
     FM280100 VRB06KT P6SM BKN080
     FM281300 17013G18KT P6SM SCT080=

USA.gov is the U.S. government's official web portal to all federal, state and local government web resources and services.